Dades meteomassalio
Diari Summary for Diciembre 11, 2017 Units:  Metric    English   Both
« Previous Day
Next Day »
Diari Semanal Mensual Anual Personalitzat
  Maxima: Minima: Mijana:
Temperatura: -17.8 °C -15.3 °C -11.9 °C
Rosada: -17.8 °C -19.9 °C -15.6 °C
Humitat: Humidity % 50 % 64 %
Velocitat del vent: 0 km/h 0 km/h 25.1 km/h
Racha vent: 0 km/h - -
Vent:- - West
Pressio: 0 hPa 33511.2 hPa -
Pluja: 83.82 mm    
Historical Graphs
 
 
Tabular Data for Diciembre 11, 2017
Time Temperature Dew Point Pressure Wind Wind Speed Wind Gust Humidity Rainfall Rate (Hourly) solar Conditions
-17.8 °C -17.8 °C 0 hPa Calm     Humidity % 0 mm SolarRadiationWatts/m^2 W/m2 Conditions
00:01 -12.2 °C -16.2 °C 33799.1 hPa Calm     61 % 0 mm 0.0 W/m2 CLR
00:06 -12.2 °C -16.2 °C 33788.9 hPa Calm     61 % 0 mm 0.0 W/m2 CLR
00:11 -12.2 °C -16.2 °C 33788.9 hPa Calm     61 % 0 mm 0.0 W/m2 CLR
00:16 -12.2 °C -16.3 °C 33788.9 hPa Calm     60 % 0 mm 0.0 W/m2 CLR
00:21 -12.2 °C -16.5 °C 33788.9 hPa Calm     59 % 0 mm 0.0 W/m2 CLR
00:26 -12.6 °C -16.8 °C 33788.9 hPa Calm     59 % 0 mm 0.0 W/m2 CLR
00:31 -12.2 °C -16.6 °C 33788.9 hPa SSW 5.1 km/h   58 % 0 mm 0.0 W/m2 CLR
00:36 -12.2 °C -16.6 °C 33775.4 hPa SSW 17.9 km/h 17.9 km/h 58 % 0 mm 0.0 W/m2 CLR
00:41 -11.9 °C -16.3 °C 33775.4 hPa SSW 9 km/h 9 km/h 58 % 0 mm 0.0 W/m2 CLR
00:46 -11.9 °C -16.4 °C 33775.4 hPa SSW 9 km/h 9 km/h 57 % 0 mm 0.0 W/m2 CLR
00:57 -11.3 °C -15.9 °C 33765.2 hPa SW 9 km/h 9 km/h 57 % 0 mm 0.0 W/m2 CLR
01:02 -10.4 °C -15 °C 33751.6 hPa SW 9 km/h 9 km/h 57 % 0 mm 0.0 W/m2 CLR
01:07 -10.1 °C -14.7 °C 33741.5 hPa SW 9 km/h 9 km/h 57 % 0 mm 0.0 W/m2 CLR
01:12 -9.8 °C -14.3 °C 33731.3 hPa SW 26.9 km/h 26.9 km/h 58 % 0 mm 0.0 W/m2 CLR
01:22 -9.8 °C -14.3 °C 33717.8 hPa SSW 29.8 km/h 29.8 km/h 58 % 0 mm 0.0 W/m2 CLR
01:27 -9.8 °C -14.3 °C 33707.6 hPa SSW 32.8 km/h 32.8 km/h 58 % 0 mm 0.0 W/m2 CLR
01:32 -9.8 °C -14.3 °C 33707.6 hPa SSW 29.8 km/h 29.8 km/h 58 % 0 mm 0.0 W/m2 CLR
01:42 -10.1 °C -14.4 °C 33694.1 hPa SW 29.8 km/h 29.8 km/h 59 % 0 mm 0.0 W/m2 CLR
01:47 -10.1 °C -14.4 °C 33694.1 hPa SSW 26.9 km/h 26.9 km/h 59 % 0 mm 0.0 W/m2 CLR
02:07 -10.1 °C -14.2 °C 33673.8 hPa SW 29.8 km/h 29.8 km/h 61 % 0 mm 0.0 W/m2 CLR
02:12 -10.1 °C -14.3 °C 33673.8 hPa SSW 29.8 km/h 29.8 km/h 60 % 0 mm 0.0 W/m2 CLR
02:17 -10.1 °C -14.3 °C 33673.8 hPa SSE 29.8 km/h 29.8 km/h 60 % 0 mm 0.0 W/m2 CLR
02:22 -10.1 °C -14.4 °C 33673.8 hPa South 20.9 km/h 20.9 km/h 59 % 0 mm 0.0 W/m2 CLR
02:27 -10.1 °C -14.4 °C 33673.8 hPa SSW 11.9 km/h 11.9 km/h 59 % 0 mm 0.0 W/m2 CLR
02:32 -10.1 °C -14.3 °C 33660.2 hPa SSW 15.6 km/h 15.6 km/h 60 % 0 mm 0.0 W/m2 CLR
02:37 -10.1 °C -14.3 °C 33650.1 hPa SSW 10.3 km/h 10.3 km/h 60 % 0 mm 0.0 W/m2 CLR
02:42 -10.4 °C -14.5 °C 33650.1 hPa SSW 11.9 km/h 11.9 km/h 61 % 0 mm 0.0 W/m2 CLR
02:47 -10.4 °C -14.5 °C 33650.1 hPa Calm     61 % 0 mm 0.0 W/m2 CLR
02:52 -10.7 °C -14.8 °C 33650.1 hPa West 9 km/h   61 % 0 mm 0.0 W/m2 CLR
02:57 -10.7 °C -14.8 °C 33650.1 hPa Calm     61 % 0 mm 0.0 W/m2 CLR
03:02 -11 °C -14.9 °C 33639.9 hPa Calm     62 % 0 mm 0.0 W/m2 CLR
03:07 -11 °C -15.1 °C 33639.9 hPa SSW 26.9 km/h 26.9 km/h 61 % 0 mm 0.0 W/m2 CLR
03:12 -10.7 °C -15.1 °C 33626.4 hPa SSW 29.8 km/h 29.8 km/h 59 % 0 mm 0.0 W/m2 CLR
03:17 -10.4 °C -14.9 °C 33626.4 hPa SW 29.8 km/h 29.8 km/h 58 % 0 mm 0.0 W/m2 CLR
03:32 -9.8 °C -14.3 °C 33602.7 hPa SSW 28.5 km/h 28.5 km/h 58 % 0 mm 0.0 W/m2 CLR
03:37 -9.4 °C -14.1 °C 33592.5 hPa SSW 38.8 km/h 38.8 km/h 57 % 0 mm 0.0 W/m2 CLR
03:42 -9.4 °C -14.1 °C 33592.5 hPa SW 26.9 km/h 26.9 km/h 57 % 0 mm 0.0 W/m2 CLR
03:47 -9.4 °C -14.1 °C 33582.3 hPa SW 44.7 km/h 44.7 km/h 57 % 0 mm 0.0 W/m2 CLR
04:02 -9.8 °C -14 °C 33592.5 hPa SSW 36.2 km/h 36.2 km/h 60 % 0 mm 0.0 W/m2 CLR
04:07 -9.8 °C -14 °C 33582.3 hPa SW 44.7 km/h 44.7 km/h 60 % 0 mm 0.0 W/m2 CLR
04:17 -9.8 °C -14 °C 33568.8 hPa SSW 35.7 km/h 35.7 km/h 60 % 0 mm 0.0 W/m2 CLR
04:22 -9.8 °C -14 °C 33558.6 hPa SSW 33.6 km/h 33.6 km/h 60 % 0 mm 0.0 W/m2 CLR
04:27 -9.8 °C -14.2 °C 33558.6 hPa SSW 35.7 km/h 35.7 km/h 59 % 0 mm 0.0 W/m2 CLR
04:32 -9.8 °C -14.2 °C 33558.6 hPa South 29.8 km/h 29.8 km/h 59 % 0 mm 0.0 W/m2 CLR
04:37 -9.8 °C -14.2 °C 33558.6 hPa South 17.9 km/h 17.9 km/h 59 % 0 mm 0.0 W/m2 CLR
04:42 -10.1 °C -14.4 °C 33558.6 hPa South 20.9 km/h 20.9 km/h 59 % 0 mm 0.0 W/m2 CLR
04:47 -10.1 °C -14.4 °C 33558.6 hPa South 15 km/h 15 km/h 59 % 0 mm 0.0 W/m2 CLR
04:52 -10.4 °C -14.7 °C 33545.1 hPa South 7.7 km/h 7.7 km/h 59 % 0 mm 0.0 W/m2 CLR
05:02 -10.4 °C -14.7 °C 33534.9 hPa SSW 25.9 km/h 25.9 km/h 59 % 0 mm 0.0 W/m2 CLR
05:12 -9.8 °C -14.2 °C 33534.9 hPa WSW 23.8 km/h 23.8 km/h 59 % 0 mm 0.0 W/m2 CLR
05:22 -10.1 °C -14.4 °C 33534.9 hPa Calm     59 % 0 mm 0.0 W/m2 CLR
05:27 -10.1 °C -14.3 °C 33545.1 hPa Calm     60 % 0 mm 0.0 W/m2 CLR
05:37 -10.1 °C -14.4 °C 33534.9 hPa Calm     59 % 0 mm 0.0 W/m2 CLR
05:47 -10.1 °C -14.4 °C 33511.2 hPa SSW 11.9 km/h 11.9 km/h 59 % 0 mm 0.0 W/m2 CLR
05:52 -10.1 °C -14.3 °C 33511.2 hPa South 10.3 km/h 10.3 km/h 60 % 0 mm 0.0 W/m2 CLR
05:57 -10.1 °C -14.3 °C 33511.2 hPa South 20.9 km/h 20.9 km/h 60 % 0 mm 0.0 W/m2 CLR
06:02 -10.1 °C -14.3 °C 33511.2 hPa Calm     60 % 0 mm 0.0 W/m2 CLR
06:12 -10.1 °C -14.3 °C 33511.2 hPa South 20.9 km/h 20.9 km/h 60 % 0 mm 0.0 W/m2 CLR
06:22 -10.1 °C -14.4 °C 33511.2 hPa Calm     59 % 0 mm 0.0 W/m2 CLR
06:27 -10.1 °C -14.3 °C 33511.2 hPa SW 9 km/h 9 km/h 60 % 0 mm 0.0 W/m2 CLR
06:32 -10.1 °C -14.4 °C 33511.2 hPa SW 29.8 km/h 29.8 km/h 59 % 0 mm 0.0 W/m2 CLR
06:47 -9.8 °C -13.4 °C 33558.6 hPa NNE 69.8 km/h 69.8 km/h 65 % 0 mm 0.0 W/m2 CLR
06:57 -11.3 °C -12.8 °C 33582.3 hPa NNW 44.7 km/h 44.7 km/h 83 % 33.02 mm 0.0 W/m2 RA
07:02 -11.6 °C -12.9 °C 33592.5 hPa NNW 29.8 km/h 29.8 km/h 85 % 45.72 mm 0.0 W/m2 RA
07:07 -11.6 °C -12.7 °C 33592.5 hPa North 29.8 km/h 29.8 km/h 87 % 50.8 mm 0.0 W/m2 RA
07:12 -11.6 °C -12.7 °C 33592.5 hPa NNW 15 km/h 15 km/h 88 % 58.42 mm 0.0 W/m2 RA
07:17 -11.6 °C -12.7 °C 33582.3 hPa North 32.8 km/h 32.8 km/h 88 % 58.42 mm 0.0 W/m2
07:27 -11.9 °C -12.9 °C 33568.8 hPa NW 20.9 km/h 20.9 km/h 89 % 63.5 mm 0.0 W/m2
07:37 -11.9 °C -12.9 °C 33582.3 hPa WNW 18.2 km/h 18.2 km/h 89 % 63.5 mm 0.0 W/m2 CLR
07:42 -11.9 °C -12.9 °C 33592.5 hPa NW 17.9 km/h 17.9 km/h 89 % 63.5 mm 0.0 W/m2 CLR
07:47 -11.9 °C -12.9 °C 33592.5 hPa NW 23.3 km/h 23.3 km/h 89 % 63.5 mm 0.0 W/m2 CLR
07:52 -11.9 °C -12.9 °C 33592.5 hPa NW 15 km/h 15 km/h 89 % 58.42 mm 0.0 W/m2 CLR
07:57 -11.9 °C -12.9 °C 33592.5 hPa NW 17.9 km/h 17.9 km/h 89 % 38.1 mm 0.0 W/m2 RA
08:02 -11.9 °C -12.9 °C 33602.7 hPa NW 23.8 km/h 23.8 km/h 89 % 25.4 mm 0.0 W/m2
08:07 -11.9 °C -12.9 °C 33602.7 hPa NW 26.9 km/h 26.9 km/h 88 % 20.32 mm 0.0 W/m2 CLR
08:12 -11.9 °C -12.9 °C 33592.5 hPa NW 17.9 km/h 17.9 km/h 88 % 12.7 mm 0.0 W/m2 OVC
08:17 -12.2 °C -13.3 °C 33602.7 hPa WNW 29.8 km/h 29.8 km/h 88 % 20.32 mm 0.0 W/m2 RA
08:22 -12.2 °C -13.3 °C 33592.5 hPa WNW 23.8 km/h 23.8 km/h 88 % 12.7 mm 0.0 W/m2 CLR
08:32 -12.2 °C -13.3 °C 33602.7 hPa Calm     88 % 12.7 mm 0.0 W/m2 OVC
08:37 -12.2 °C -13.2 °C 33616.2 hPa Calm     89 % 12.7 mm 0.0 W/m2 OVC
08:42 -12.2 °C -13.2 °C 33616.2 hPa Calm     89 % 12.7 mm 5.0 W/m2 OVC
08:47 -12.2 °C -13.2 °C 33616.2 hPa Calm     89 % 12.7 mm 7.0 W/m2 BKN
08:52 -12.2 °C -13.1 °C 33602.7 hPa Calm     90 % 12.7 mm 9.0 W/m2 BKN
09:07 -12.2 °C -13.1 °C 33602.7 hPa WSW 12.9 km/h 12.9 km/h 90 % 7.62 mm 14.0 W/m2 BKN
09:13 -12.2 °C -13.1 °C 33602.7 hPa SW 9 km/h 9 km/h 90 % 7.62 mm 18.0 W/m2 BKN
09:18 -12.2 °C -13.2 °C 33616.2 hPa WSW 9 km/h 9 km/h 89 % 0 mm 19.0 W/m2 BKN
09:23 -12.2 °C -13.3 °C 33626.4 hPa Calm     88 % 0 mm 23.0 W/m2 BKN
09:28 -11.9 °C -12.9 °C 33626.4 hPa Calm     88 % 0 mm 25.0 W/m2 BKN
09:33 -11.9 °C -12.9 °C 33616.2 hPa Calm     88 % 0 mm 23.0 W/m2 BKN
09:38 -11.9 °C -12.9 °C 33616.2 hPa Calm     88 % 0 mm 26.0 W/m2 BKN
09:58 -12.6 °C -14.3 °C 33639.9 hPa WNW 10.3 km/h 10.3 km/h 81 % 0 mm 14.0 W/m2 BKN
10:08 -12.6 °C -14.3 °C 33639.9 hPa WNW 17.9 km/h 17.9 km/h 80 % 7.62 mm 28.0 W/m2 RA
10:13 -12.6 °C -14.3 °C 33639.9 hPa NW 20.9 km/h 20.9 km/h 80 % 7.62 mm 42.0 W/m2 BKN
10:18 -12.6 °C -14.4 °C 33639.9 hPa WNW 20.9 km/h 20.9 km/h 79 % 7.62 mm 56.0 W/m2 BKN
10:23 -12.6 °C -14.6 °C 33639.9 hPa WNW 23.8 km/h 23.8 km/h 78 % 7.62 mm 54.0 W/m2 SCT
10:28 -12.6 °C -14.4 °C 33639.9 hPa WNW 20.9 km/h 20.9 km/h 79 % 7.62 mm 49.0 W/m2 SCT
10:33 -12.2 °C -14.3 °C 33639.9 hPa WNW 29.8 km/h 29.8 km/h 77 % 7.62 mm 54.0 W/m2 SCT
10:38 -12.2 °C -14.7 °C 33650.1 hPa WNW 35.7 km/h 35.7 km/h 74 % 7.62 mm 56.0 W/m2 SCT
10:43 -12.2 °C -14.9 °C 33650.1 hPa NW 41.7 km/h 41.7 km/h 72 % 7.62 mm 56.0 W/m2 SCT
10:48 -12.2 °C -15 °C 33650.1 hPa WNW 29.8 km/h 29.8 km/h 71 % 7.62 mm 51.0 W/m2 SCT
10:53 -12.2 °C -15.2 °C 33650.1 hPa WNW 35.7 km/h 35.7 km/h 69 % 7.62 mm 54.0 W/m2 SCT
10:58 -11.9 °C -15.1 °C 33650.1 hPa WNW 41.7 km/h 41.7 km/h 68 % 7.62 mm 56.0 W/m2 SCT
11:03 -11.9 °C -15.2 °C 33660.2 hPa NW 29.8 km/h 29.8 km/h 67 % 7.62 mm 54.0 W/m2 SCT
11:08 -12.2 °C -15.4 °C 33660.2 hPa WNW 33.6 km/h 33.6 km/h 67 % 0 mm 63.0 W/m2 SCT
11:13 -11.9 °C -15.2 °C 33660.2 hPa WNW 26.9 km/h 26.9 km/h 67 % 0 mm 72.0 W/m2 SCT
11:18 -11.9 °C -15.1 °C 33650.1 hPa West 29.8 km/h 29.8 km/h 68 % 0 mm 86.0 W/m2 FEW
11:23 -11.9 °C -14.8 °C 33660.2 hPa WNW 15 km/h 15 km/h 70 % 0 mm 95.0 W/m2 FEW
11:28 -11.9 °C -14.8 °C 33660.2 hPa NW 17.9 km/h 17.9 km/h 70 % 0 mm 91.0 W/m2 CLR
11:33 -11.9 °C -15.1 °C 33660.2 hPa NW 23.8 km/h 23.8 km/h 68 % 0 mm 88.0 W/m2 CLR
11:38 -11.9 °C -15.1 °C 33660.2 hPa NW 29.8 km/h 29.8 km/h 68 % 0 mm 84.0 W/m2 CLR
11:43 -11.9 °C -15.3 °C 33660.2 hPa WNW 26.9 km/h 26.9 km/h 66 % 0 mm 93.0 W/m2 CLR
11:48 -11.9 °C -15.4 °C 33660.2 hPa WNW 33.6 km/h 33.6 km/h 65 % 0 mm 98.0 W/m2 CLR
11:53 -11.9 °C -15.4 °C 33660.2 hPa NNW 35.7 km/h 35.7 km/h 65 % 0 mm 104.0 W/m2 CLR
11:58 -11.6 °C -15 °C 33660.2 hPa NW 29.8 km/h 29.8 km/h 66 % 0 mm 118.0 W/m2 CLR
12:08 -11.6 °C -15.2 °C 33650.1 hPa NNW 32.8 km/h 32.8 km/h 64 % 0 mm 130.0 W/m2 CLR
12:18 -11.3 °C -15.2 °C 33650.1 hPa NNE 29.8 km/h 29.8 km/h 62 % 0 mm 151.0 W/m2 CLR
12:23 -11.3 °C -15.2 °C 33650.1 hPa North 25.9 km/h 25.9 km/h 62 % 0 mm 156.0 W/m2 CLR
12:38 -11 °C -14.9 °C 33650.1 hPa North 20.9 km/h 20.9 km/h 62 % 0 mm 169.0 W/m2 CLR
12:43 -11 °C -14.9 °C 33660.2 hPa NNW 29.8 km/h 29.8 km/h 62 % 0 mm 162.0 W/m2 CLR
12:48 -11 °C -14.9 °C 33650.1 hPa NNW 29.8 km/h 29.8 km/h 62 % 0 mm 163.0 W/m2 CLR
12:53 -11 °C -15.1 °C 33650.1 hPa NW 23.3 km/h 23.3 km/h 61 % 0 mm 190.0 W/m2 CLR
12:58 -10.7 °C -14.6 °C 33660.2 hPa NNW 20.9 km/h 20.9 km/h 62 % 0 mm 207.0 W/m2 CLR
13:03 -10.7 °C -15.1 °C 33650.1 hPa WNW 29.8 km/h 29.8 km/h 59 % 0 mm 197.0 W/m2 CLR
13:08 -10.7 °C -15.2 °C 33650.1 hPa West 29.8 km/h 29.8 km/h 58 % 0 mm 214.0 W/m2 CLR
13:18 -10.7 °C -15.4 °C 33660.2 hPa WNW 47.6 km/h 47.6 km/h 56 % 0 mm 246.0 W/m2 CLR
13:28 -10.4 °C -15 °C 33660.2 hPa NW 50.7 km/h 50.7 km/h 57 % 0 mm 269.0 W/m2 CLR
13:33 -10.4 °C -15.2 °C 33650.1 hPa NNW 65.5 km/h 65.5 km/h 56 % 0 mm 545.0 W/m2 CLR
13:38 -10.4 °C -15 °C 33660.2 hPa NW 41.4 km/h 41.4 km/h 57 % 0 mm 172.0 W/m2 CLR
13:43 -10.4 °C -15 °C 33660.2 hPa North 59.5 km/h 59.5 km/h 57 % 0 mm 181.0 W/m2 CLR
13:48 -10.7 °C -15.2 °C 33660.2 hPa North 59.5 km/h 59.5 km/h 58 % 0 mm 148.0 W/m2 CLR
13:58 -11 °C -15.3 °C 33673.8 hPa North 59.5 km/h 59.5 km/h 59 % 0 mm 135.0 W/m2 CLR
14:03 -11 °C -15.1 °C 33673.8 hPa NNW 50.7 km/h 50.7 km/h 61 % 0 mm 165.0 W/m2 CLR
14:08 -11 °C -15.2 °C 33673.8 hPa NW 44.7 km/h 44.7 km/h 60 % 0 mm 163.0 W/m2 CLR
14:13 -11.3 °C -15.3 °C 33673.8 hPa NNW 53.6 km/h 53.6 km/h 61 % 0 mm 153.0 W/m2 CLR
14:18 -11.3 °C -15.4 °C 33673.8 hPa NNW 64.7 km/h 64.7 km/h 60 % 0 mm 160.0 W/m2 CLR
14:24 -11.3 °C -15.1 °C 33673.8 hPa NW 50.7 km/h 50.7 km/h 63 % 0 mm 192.0 W/m2 CLR
14:29 -11.3 °C -15.1 °C 33673.8 hPa North 47.6 km/h 47.6 km/h 63 % 0 mm 160.0 W/m2 CLR
14:34 -11.3 °C -14.7 °C 33694.1 hPa North 51.8 km/h 51.8 km/h 66 % 0 mm 130.0 W/m2 CLR
14:39 -11.6 °C -14.6 °C 33707.6 hPa NNW 80.5 km/h 80.5 km/h 70 % 0 mm 35.0 W/m2 CLR
14:44 -12.2 °C -14.7 °C 33683.9 hPa NW 32.8 km/h 32.8 km/h 74 % 7.62 mm 121.0 W/m2 RA
14:49 -12.6 °C -14.9 °C 33694.1 hPa NW 50.7 km/h 50.7 km/h 75 % 7.62 mm 141.0 W/m2 FEW
14:54 -12.6 °C -14.8 °C 33694.1 hPa NW 32.8 km/h 32.8 km/h 76 % 7.62 mm 153.0 W/m2 CLR
14:59 -12.6 °C -14.9 °C 33694.1 hPa NNW 38.8 km/h 38.8 km/h 75 % 7.62 mm 121.0 W/m2 CLR
15:04 -12.6 °C -14.8 °C 33694.1 hPa NW 29.8 km/h 29.8 km/h 76 % 7.62 mm 153.0 W/m2 CLR
15:09 -12.2 °C -14.6 °C 33707.6 hPa NW 32.8 km/h 32.8 km/h 75 % 7.62 mm 197.0 W/m2 CLR
15:39 -11.3 °C -15.2 °C 33717.8 hPa WNW 31.1 km/h 31.1 km/h 62 % 7.62 mm 264.0 W/m2 CLR
15:44 -11 °C -14.8 °C 33717.8 hPa NW 31.1 km/h 31.1 km/h 63 % 0 mm 171.0 W/m2 CLR
15:49 -11 °C -14.9 °C 33731.3 hPa NNW 32.8 km/h 32.8 km/h 62 % 0 mm 153.0 W/m2 CLR
15:54 -11.3 °C -15.7 °C 33741.5 hPa North 47.6 km/h 47.6 km/h 58 % 0 mm 76.0 W/m2 CLR
15:59 -11.3 °C -16.3 °C 33741.5 hPa NNW 35.7 km/h 35.7 km/h 54 % 0 mm 62.0 W/m2 FEW
16:24 -11.6 °C -16.9 °C 33765.2 hPa North 26.9 km/h 26.9 km/h 52 % 0 mm 47.0 W/m2 SCT
16:34 -11.9 °C -17.3 °C 33775.4 hPa North 32.8 km/h 32.8 km/h 51 % 0 mm 23.0 W/m2 BKN
16:39 -11.9 °C -17.2 °C 33775.4 hPa North 20.9 km/h 20.9 km/h 52 % 0 mm 21.0 W/m2 BKN
16:44 -11.6 °C -16.9 °C 33775.4 hPa North 26.9 km/h 26.9 km/h 52 % 0 mm 42.0 W/m2 SCT
16:49 -11.9 °C -17.2 °C 33775.4 hPa Calm     52 % 0 mm 39.0 W/m2 BKN
16:54 -11.9 °C -17.3 °C 33775.4 hPa North 23.8 km/h 23.8 km/h 51 % 0 mm 35.0 W/m2 BKN
16:59 -12.2 °C -17.3 °C 33788.9 hPa NNW 26.9 km/h 26.9 km/h 53 % 0 mm 19.0 W/m2 BKN
17:04 -12.2 °C -17.2 °C 33788.9 hPa Calm     54 % 0 mm 19.0 W/m2 BKN
17:09 -12.6 °C -17.4 °C 33799.1 hPa NW 6 km/h 6 km/h 54 % 0 mm 21.0 W/m2 BKN
17:14 -12.8 °C -17.7 °C 33799.1 hPa WNW 23.8 km/h 23.8 km/h 54 % 0 mm 16.0 W/m2 BKN
17:19 -13.2 °C -17.9 °C 33809.2 hPa NW 26.9 km/h 26.9 km/h 55 % 0 mm 12.0 W/m2 BKN
17:24 -13.2 °C -17.9 °C 33809.2 hPa WNW 15 km/h 15 km/h 55 % 0 mm 9.0 W/m2 BKN
17:29 -13.2 °C -17.7 °C 33809.2 hPa WNW 20.9 km/h 20.9 km/h 56 % 0 mm 5.0 W/m2 OVC
17:39 -13.2 °C -17.4 °C 33822.8 hPa WNW 17.9 km/h 17.9 km/h 58 % 0 mm 0.0 W/m2 OVC
17:54 -13.8 °C -17.8 °C 33832.9 hPa WNW 20.9 km/h 20.9 km/h 60 % 0 mm 0.0 W/m2 CLR
17:59 -14.1 °C -18.1 °C 33832.9 hPa WNW 15 km/h 15 km/h 60 % 0 mm 0.0 W/m2 CLR
18:04 -14.1 °C -18.1 °C 33832.9 hPa West 20.9 km/h 20.9 km/h 60 % 0 mm 0.0 W/m2 CLR
18:14 -14.4 °C -18.1 °C 33843.1 hPa West 17.9 km/h 17.9 km/h 62 % 0 mm 0.0 W/m2 CLR
18:19 -14.7 °C -18.4 °C 33856.6 hPa WNW 17.9 km/h 17.9 km/h 62 % 0 mm 0.0 W/m2 CLR
18:24 -14.7 °C -18.3 °C 33856.6 hPa WNW 20.9 km/h 20.9 km/h 63 % 0 mm 0.0 W/m2 CLR
18:44 -15.3 °C -19.9 °C 33880.3 hPa NW 35.7 km/h 35.7 km/h 55 % 0 mm 0.0 W/m2 CLR
18:49 -15.3 °C -19.9 °C 33880.3 hPa NW 32.8 km/h 32.8 km/h 55 % 0 mm 0.0 W/m2 CLR
18:54 -14.7 °C -19.3 °C 33890.5 hPa NW 29.8 km/h 29.8 km/h 55 % 0 mm 0.0 W/m2 CLR
18:59 -14.4 °C -19.2 °C 33890.5 hPa NW 33.6 km/h 33.6 km/h 54 % 0 mm 0.0 W/m2 CLR
19:04 -13.4 °C -18.3 °C 33890.5 hPa NW 35.7 km/h 35.7 km/h 54 % 0 mm 0.0 W/m2 CLR
19:09 -13.4 °C -18.4 °C 33900.6 hPa WNW 36.2 km/h 36.2 km/h 53 % 0 mm 0.0 W/m2 CLR
19:14 -13.2 °C -18.2 °C 33900.6 hPa NW 33.6 km/h 33.6 km/h 53 % 0 mm 0.0 W/m2 CLR
19:19 -13.2 °C -18.3 °C 33900.6 hPa WNW 38.8 km/h 38.8 km/h 52 % 0 mm 0.0 W/m2 CLR
19:24 -12.8 °C -18 °C 33900.6 hPa NW 35.7 km/h 35.7 km/h 52 % 0 mm 0.0 W/m2 CLR
19:34 -13.2 °C -18.3 °C 33900.6 hPa WNW 29.8 km/h 29.8 km/h 52 % 0 mm 0.0 W/m2 CLR
19:36 -13.2 °C -18.3 °C 33914.2 hPa NW 35.7 km/h 35.7 km/h 52 % 0 mm 0.0 W/m2 CLR
19:41 -13.2 °C -18.3 °C 33914.2 hPa NW 35.7 km/h 35.7 km/h 52 % 0 mm 0.0 W/m2 CLR
19:51 -13.2 °C -18.6 °C 33914.2 hPa NW 35.7 km/h 35.7 km/h 50 % 0 mm 0.0 W/m2 CLR
19:56 -13.2 °C -18.6 °C 33914.2 hPa WNW 38.8 km/h 38.8 km/h 50 % 0 mm 0.0 W/m2 CLR
20:01 -12.8 °C -18.2 °C 33924.3 hPa WNW 41.7 km/h 41.7 km/h 51 % 0 mm 0.0 W/m2 CLR
20:11 -12.8 °C -18.2 °C 33924.3 hPa NW 44.7 km/h 44.7 km/h 51 % 0 mm 0.0 W/m2 CLR
20:26 -12.8 °C -18 °C 33937.9 hPa NW 29.8 km/h 29.8 km/h 52 % 0 mm 0.0 W/m2 CLR
20:36 -13.2 °C -18.3 °C 33958.2 hPa NW 29.8 km/h 29.8 km/h 52 % 0 mm 0.0 W/m2 CLR
20:41 -13.2 °C -18.2 °C 33958.2 hPa NW 23.8 km/h 23.8 km/h 53 % 0 mm 0.0 W/m2 CLR
20:46 -13.4 °C -18.3 °C 33958.2 hPa NW 23.8 km/h 23.8 km/h 54 % 0 mm 0.0 W/m2 CLR
20:47 -13.4 °C -18.3 °C 33958.2 hPa NW 23.8 km/h 23.8 km/h 54 % 0 mm 0.0 W/m2 CLR
20:52 -13.4 °C -18.3 °C 33971.7 hPa WNW 20.9 km/h 20.9 km/h 54 % 0 mm 0.0 W/m2 CLR
20:57 -13.8 °C -18.6 °C 33971.7 hPa WNW 17.9 km/h 17.9 km/h 54 % 0 mm 0.0 W/m2 CLR
21:02 -14.4 °C -19.1 °C 33981.9 hPa Calm     55 % 0 mm 0.0 W/m2 CLR
21:12 -14.7 °C -19.2 °C 33992.1 hPa Calm     56 % 0 mm 0.0 W/m2 CLR
21:22 -15.3 °C -19.6 °C 33992.1 hPa Calm     57 % 0 mm 0.0 W/m2 CLR
21:27 -15.3 °C -19.5 °C 34005.6 hPa Calm     58 % 0 mm 0.0 W/m2 CLR
21:37 -15 °C -18.9 °C 34015.8 hPa Calm     60 % 0 mm 0.0 W/m2 CLR
21:42 -14.7 °C -18.7 °C 34015.8 hPa NNW 23.8 km/h 23.8 km/h 60 % 0 mm 0.0 W/m2 CLR
21:52 -14.4 °C -18.5 °C 34015.8 hPa NNW 29.8 km/h 29.8 km/h 59 % 0 mm 0.0 W/m2 CLR
22:02 -13.4 °C -17.4 °C 34029.3 hPa North 29.8 km/h 29.8 km/h 61 % 0 mm 0.0 W/m2 CLR
22:07 -13.4 °C -17.4 °C 34039.5 hPa North 29.8 km/h 29.8 km/h 61 % 0 mm 0.0 W/m2 CLR
22:12 -13.4 °C -17.4 °C 34049.6 hPa North 35.7 km/h 35.7 km/h 61 % 0 mm 0.0 W/m2 CLR
22:32 -13.8 °C -17.2 °C 34063.2 hPa NNW 31.1 km/h 31.1 km/h 65 % 0 mm 0.0 W/m2 CLR
22:42 -13.8 °C -16.9 °C 34073.3 hPa NNW 38.8 km/h 38.8 km/h 67 % 0 mm 0.0 W/m2 CLR
22:52 -13.8 °C -16.8 °C 34063.2 hPa NNW 35.7 km/h 35.7 km/h 68 % 0 mm 0.0 W/m2 CLR
22:57 -13.8 °C -16.7 °C 34073.3 hPa NNW 32.8 km/h 32.8 km/h 69 % 0 mm 0.0 W/m2 CLR
23:07 -13.8 °C -16.6 °C 34086.9 hPa NNW 29.8 km/h 29.8 km/h 70 % 0 mm 0.0 W/m2 CLR
23:12 -13.8 °C -16.5 °C 34097 hPa North 17.9 km/h 17.9 km/h 71 % 0 mm 0.0 W/m2 CLR
23:17 -13.8 °C -16.5 °C 34097 hPa NNW 35.7 km/h 35.7 km/h 71 % 0 mm 0.0 W/m2 CLR
23:22 -13.8 °C -16.5 °C 34097 hPa North 33.6 km/h 33.6 km/h 71 % 0 mm 0.0 W/m2 CLR
23:27 -13.8 °C -16.5 °C 34107.2 hPa NNW 26.9 km/h 26.9 km/h 71 % 0 mm 0.0 W/m2 CLR
23:32 -13.8 °C -16.5 °C 34107.2 hPa NW 23.8 km/h 23.8 km/h 71 % 0 mm 0.0 W/m2 CLR
23:37 -13.8 °C -16.5 °C 34107.2 hPa NW 26.9 km/h 26.9 km/h 71 % 0 mm 0.0 W/m2 CLR
23:42 -13.8 °C -16.4 °C 34107.2 hPa NW 32.8 km/h 32.8 km/h 72 % 0 mm 0.0 W/m2 CLR
23:47 -14.1 °C -16.6 °C 34107.2 hPa NNW 44.7 km/h 44.7 km/h 73 % 0 mm 0.0 W/m2 CLR
23:52 -14.1 °C -16.6 °C 34120.7 hPa NNW 29.8 km/h 29.8 km/h 73 % 0 mm 0.0 W/m2 CLR
23:57 -14.1 °C -16.5 °C 34120.7 hPa NNW 50.7 km/h 50.7 km/h 74 % 0 mm 0.0 W/m2 CLR
Lo Temps de Massalio
Compliments of Weather Underground - 1 mb